Charles Darwin — GDLS — position and weather

sailwx.info

Track history (hours):
 
Tides and Currents Weather Stations Pressure Air Temp Water Temp Dewpoint Dewpoint Depression Visibility Wind Speed Wind Dir Waves Ship Positions

Oceanographic research ship Charles Darwin (UK)

Detailed information on ship capabilities available from University of Delaware's Ocean Information Center.

Last reported at 2020-Mar-28 08:14 UTC. Time now 2020-Mar-29 14:58 UTC.
Position N 39°10' W 074°12'.

Length 70 m; draft 5.7 m.

Type: Cargo ship. MMSI: 235011460.

Date/timePositionNaut miles runAvg speedWind from/ knotsBaromVisibWave heightAir tempDewpointWater temp
2020-Mar-28 08:14N 39°10' W 074°12'17 8.4
2020-Mar-28 06:14N 39°25' W 074°04'4 8.2
2020-Mar-28 05:44N 39°29' W 074°01'22 7.9
2020-Mar-28 03:00N 39°49' W 073°50'3 5.0
2020-Mar-28 02:30N 39°52' W 073°50'35 8.0
2020-Mar-27 22:10N 40°26' W 073°49'5 8.1
2020-Mar-27 21:30N 40°29' W 073°55'17 3.6
2020-Mar-27 16:57N 40°42' W 074°09'0 0.0
2020-Mar-27 16:30N 40°42' W 074°09'0 0.0
2020-Mar-27 16:00N 40°42' W 074°09'0 0.0
2020-Mar-27 14:57N 40°42' W 074°09'0 0.0
2020-Mar-27 13:27N 40°42' W 074°09'0 0.0
2020-Mar-27 12:30N 40°42' W 074°09'0 0.0
2020-Mar-27 12:00N 40°42' W 074°09'0 0.0
2020-Mar-27 10:30N 40°42' W 074°09'0 0.0
2020-Mar-27 10:00N 40°42' W 074°09'0 0.0
2020-Mar-27 08:00N 40°42' W 074°09'0 0.0
2020-Mar-27 05:57N 40°42' W 074°09'0 0.0
2020-Mar-27 03:30N 40°42' W 074°09'0 0.0
2020-Mar-26 21:24N 40°42' W 074°09'0 0.0
2020-Mar-26 20:54N 40°42' W 074°09'0 0.0
2020-Mar-26 18:00N 40°42' W 074°09'0 0.0
2020-Mar-26 17:30N 40°42' W 074°09'0 0.0
2020-Mar-26 14:48N 40°42' W 074°09'0 0.0
2020-Mar-26 13:30N 40°42' W 074°09'0 0.0
2020-Mar-26 11:00N 40°42' W 074°09'0 0.0
2020-Mar-26 09:57N 40°42' W 074°09'0 0.0
2020-Mar-26 09:30N 40°42' W 074°09'0 0.0
2020-Mar-26 08:00N 40°42' W 074°09'0 0.0
2020-Mar-26 07:30N 40°42' W 074°09'0 0.0
2020-Mar-26 07:00N 40°42' W 074°09'0 0.0
2020-Mar-26 06:30N 40°42' W 074°09'0 0.0
2020-Mar-26 06:00N 40°42' W 074°09'0 0.0
2020-Mar-26 05:30N 40°42' W 074°09'0 0.0
2020-Mar-26 04:30N 40°42' W 074°09'0 0.0
2020-Mar-26 03:30N 40°42' W 074°09'0 0.0
2020-Mar-25 22:57N 40°42' W 074°09'0 0.0
2020-Mar-25 20:30N 40°42' W 074°09'0 0.0
2020-Mar-25 15:30N 40°42' W 074°09'0 0.0
2020-Mar-25 13:30N 40°42' W 074°09'0 0.0
2020-Mar-25 13:00N 40°42' W 074°09'0 0.0
2020-Mar-25 10:30N 40°42' W 074°09'0 0.0
2020-Mar-25 08:27N 40°42' W 074°09'0 0.0
2020-Mar-25 08:00N 40°42' W 074°09'0 0.0
2020-Mar-25 05:30N 40°42' W 074°09'0 0.0
2020-Mar-25 01:30N 40°42' W 074°09'0 0.0
2020-Mar-25 01:00N 40°42' W 074°09'0 0.0
2020-Mar-25 00:30N 40°42' W 074°09'0 0.0
2020-Mar-24 23:00N 40°42' W 074°09'0 0.0
2020-Mar-24 21:30N 40°42' W 074°09'0 0.0
2020-Mar-24 20:00N 40°42' W 074°09'0 0.0
2020-Mar-24 19:30N 40°42' W 074°09'0 0.0
2020-Mar-24 19:00N 40°42' W 074°09'0 0.0
2020-Mar-24 17:30N 40°42' W 074°09'0 0.0
2020-Mar-24 17:00N 40°42' W 074°09'0 0.0
2020-Mar-24 15:30N 40°42' W 074°09'0 0.0
2020-Mar-24 14:00N 40°42' W 074°09'0 0.0
2020-Mar-24 13:30N 40°42' W 074°09'0 0.0
2020-Mar-24 13:00N 40°42' W 074°09'0 0.0
2020-Mar-24 10:00N 40°42' W 074°09'0 0.0
2020-Mar-24 08:30N 40°42' W 074°09'0 0.0
2020-Mar-24 08:00N 40°42' W 074°09'0 0.0
2020-Mar-24 07:27N 40°42' W 074°09'0 0.0
2020-Mar-24 05:27N 40°42' W 074°09'0 0.0
2020-Mar-24 04:30N 40°42' W 074°09'0 0.0
2020-Mar-24 01:30N 40°42' W 074°09'0 0.0
2020-Mar-24 00:30N 40°42' W 074°09'0 0.0
2020-Mar-23 23:27N 40°42' W 074°09'0 0.0
2020-Mar-23 21:00N 40°42' W 074°09'3 2.0
2020-Mar-23 19:31N 40°39' W 074°09'2 0.3
2020-Mar-23 13:28N 40°38' W 074°12'0 0.0
2020-Mar-23 12:58N 40°38' W 074°12'0 0.0
2020-Mar-23 11:28N 40°38' W 074°12'0 0.0
2020-Mar-23 10:58N 40°38' W 074°12'0 0.0
2020-Mar-23 09:29N 40°38' W 074°12'0 0.0
2020-Mar-23 07:58N 40°38' W 074°12'0 0.0
2020-Mar-23 05:22N 40°38' W 074°12'0 0.0
2020-Mar-23 04:28N 40°38' W 074°12'0 0.0
2020-Mar-23 02:28N 40°38' W 074°12'0 0.0
2020-Mar-23 01:58N 40°38' W 074°12'0 0.0
2020-Mar-23 01:28N 40°38' W 074°12'0 0.0
2020-Mar-22 23:58N 40°38' W 074°12'0 0.0
2020-Mar-22 22:28N 40°38' W 074°12'0 0.0
2020-Mar-22 21:58N 40°38' W 074°12'0 0.0
2020-Mar-22 19:58N 40°38' W 074°12'0 0.0
2020-Mar-22 19:28N 40°38' W 074°12'0 0.0
2020-Mar-22 18:28N 40°38' W 074°12'0 0.0
2020-Mar-22 17:25N 40°38' W 074°12'0 0.0
2020-Mar-22 15:58N 40°38' W 074°12'0 0.0
2020-Mar-22 08:28N 40°38' W 074°12'0 0.0
2020-Mar-22 05:58N 40°38' W 074°12'0 0.0
2020-Mar-22 04:52N 40°38' W 074°12'0 0.0
2020-Mar-22 03:28N 40°38' W 074°12'0 0.0
2020-Mar-22 02:28N 40°38' W 074°12'0 0.0
2020-Mar-21 23:28N 40°38' W 074°12'0 0.0
2020-Mar-21 22:25N 40°38' W 074°12'0 0.0
2020-Mar-21 20:28N 40°38' W 074°12'0 0.0
2020-Mar-21 19:28N 40°38' W 074°12'0 0.0
2020-Mar-21 17:58N 40°38' W 074°12'0 0.0
2020-Mar-21 17:28N 40°38' W 074°12'0 0.0
2020-Mar-21 16:28N 40°38' W 074°12'0 0.0
2020-Mar-21 13:28N 40°38' W 074°12'0 0.0
2020-Mar-21 11:29N 40°38' W 074°12'0 0.0
2020-Mar-21 09:29N 40°38' W 074°12'0 0.0
2020-Mar-21 02:59N 40°38' W 074°12'0 0.0
2020-Mar-21 02:23N 40°38' W 074°12'0 0.0
2020-Mar-21 01:59N 40°38' W 074°12'0 0.0
2020-Mar-21 01:29N 40°38' W 074°12'0 0.0
2020-Mar-21 00:59N 40°38' W 074°12'0 0.0
2020-Mar-20 23:59N 40°38' W 074°12'0 0.0
2020-Mar-20 22:59N 40°38' W 074°12'0 0.0
2020-Mar-20 21:23N 40°38' W 074°12'0 0.0
2020-Mar-20 20:59N 40°38' W 074°12'0 0.0
2020-Mar-20 20:29N 40°38' W 074°12'0 0.0
2020-Mar-20 19:29N 40°38' W 074°12'0 0.0
2020-Mar-20 18:47N 40°38' W 074°12'0 0.0
2020-Mar-20 16:59N 40°38' W 074°12'0 0.0
2020-Mar-20 15:59N 40°38' W 074°12'0 0.0
2020-Mar-20 14:29N 40°38' W 074°12'0 0.0
2020-Mar-20 13:59N 40°38' W 074°12'0 0.0
2020-Mar-20 12:56N 40°38' W 074°12'0 0.0
2020-Mar-20 10:59N 40°38' W 074°12'0 0.0
2020-Mar-20 08:56N 40°38' W 074°12'0 0.0
2020-Mar-20 08:29N 40°38' W 074°12'0 0.0
2020-Mar-20 05:53N 40°38' W 074°12'0 0.0
2020-Mar-20 05:29N 40°38' W 074°12'0 0.0
2020-Mar-20 02:59N 40°38' W 074°12'0 0.0
2020-Mar-20 02:29N 40°38' W 074°12'0 0.0
2020-Mar-19 23:59N 40°38' W 074°12'0 0.0
2020-Mar-19 22:59N 40°38' W 074°12'0 0.0
2020-Mar-19 22:29N 40°38' W 074°12'0 0.0
2020-Mar-19 19:56N 40°38' W 074°12'0 0.0
2020-Mar-19 19:29N 40°38' W 074°12'0 0.0
2020-Mar-19 18:29N 40°38' W 074°12'0 0.0
2020-Mar-19 16:29N 40°38' W 074°12'0 0.0
2020-Mar-19 14:29N 40°38' W 074°12'0 0.0
2020-Mar-19 13:59N 40°38' W 074°12'0 0.0
2020-Mar-19 13:23N 40°38' W 074°12'0 0.0
2020-Mar-19 09:59N 40°38' W 074°12'0 0.0
2020-Mar-19 09:23N 40°38' W 074°12'0 0.0
2020-Mar-19 08:23N 40°38' W 074°12'0 0.0
2020-Mar-19 06:29N 40°38' W 074°12'0 0.0
2020-Mar-19 05:29N 40°38' W 074°12'0 0.0
2020-Mar-19 04:59N 40°38' W 074°12'0 0.0
2020-Mar-19 04:29N 40°38' W 074°12'0 0.0
2020-Mar-19 03:29N 40°38' W 074°12'0 0.0
2020-Mar-19 02:29N 40°38' W 074°12'0 0.0
2020-Mar-19 00:59N 40°38' W 074°12'0 0.0
2020-Mar-18 23:59N 40°38' W 074°12'0 0.0
2020-Mar-18 19:59N 40°38' W 074°12'0 0.0
2020-Mar-18 18:29N 40°38' W 074°12'0 0.0
2020-Mar-18 13:29N 40°38' W 074°12'0 0.0
2020-Mar-18 12:29N 40°38' W 074°12'0 0.0
2020-Mar-18 11:59N 40°38' W 074°12'7 3.4
2020-Mar-18 10:00N 40°37' W 074°03'4 8.4
2020-Mar-18 09:30N 40°33' W 074°02'4 7.7
2020-Mar-18 09:00N 40°30' W 073°58'4 8.2
2020-Mar-18 08:30N 40°29' W 073°53'  
Track history (hours):
 
Tides and Currents Weather Stations Pressure Air Temp Water Temp Dewpoint Dewpoint Depression Visibility Wind Speed Wind Dir Waves Ship Positions

Oceanographic research ship Charles Darwin (UK)

Detailed information on ship capabilities available from University of Delaware's Ocean Information Center.

Last reported at 2020-Mar-28 08:14 UTC. Time now 2020-Mar-29 14:58 UTC.
Position N 39°10' W 074°12'.

Length 70 m; draft 5.7 m.

Type: Cargo ship. MMSI: 235011460.

Date/timePositionNaut miles runAvg speedWind from/ knotsBaromVisibWave heightAir tempDewpointWater temp
2020-Mar-28 08:14N 39°10' W 074°12'17 8.4
2020-Mar-28 06:14N 39°25' W 074°04'4 8.2
2020-Mar-28 05:44N 39°29' W 074°01'22 7.9
2020-Mar-28 03:00N 39°49' W 073°50'3 5.0
2020-Mar-28 02:30N 39°52' W 073°50'35 8.0
2020-Mar-27 22:10N 40°26' W 073°49'5 8.1
2020-Mar-27 21:30N 40°29' W 073°55'17 3.6
2020-Mar-27 16:57N 40°42' W 074°09'0 0.0
2020-Mar-27 16:30N 40°42' W 074°09'0 0.0
2020-Mar-27 16:00N 40°42' W 074°09'0 0.0
2020-Mar-27 14:57N 40°42' W 074°09'0 0.0
2020-Mar-27 13:27N 40°42' W 074°09'0 0.0
2020-Mar-27 12:30N 40°42' W 074°09'0 0.0
2020-Mar-27 12:00N 40°42' W 074°09'0 0.0
2020-Mar-27 10:30N 40°42' W 074°09'0 0.0
2020-Mar-27 10:00N 40°42' W 074°09'0 0.0
2020-Mar-27 08:00N 40°42' W 074°09'0 0.0
2020-Mar-27 05:57N 40°42' W 074°09'0 0.0
2020-Mar-27 03:30N 40°42' W 074°09'0 0.0
2020-Mar-26 21:24N 40°42' W 074°09'0 0.0
2020-Mar-26 20:54N 40°42' W 074°09'0 0.0
2020-Mar-26 18:00N 40°42' W 074°09'0 0.0
2020-Mar-26 17:30N 40°42' W 074°09'0 0.0
2020-Mar-26 14:48N 40°42' W 074°09'0 0.0
2020-Mar-26 13:30N 40°42' W 074°09'0 0.0
2020-Mar-26 11:00N 40°42' W 074°09'0 0.0
2020-Mar-26 09:57N 40°42' W 074°09'0 0.0
2020-Mar-26 09:30N 40°42' W 074°09'0 0.0
2020-Mar-26 08:00N 40°42' W 074°09'0 0.0
2020-Mar-26 07:30N 40°42' W 074°09'0 0.0
2020-Mar-26 07:00N 40°42' W 074°09'0 0.0
2020-Mar-26 06:30N 40°42' W 074°09'0 0.0
2020-Mar-26 06:00N 40°42' W 074°09'0 0.0
2020-Mar-26 05:30N 40°42' W 074°09'0 0.0
2020-Mar-26 04:30N 40°42' W 074°09'0 0.0
2020-Mar-26 03:30N 40°42' W 074°09'0 0.0
2020-Mar-25 22:57N 40°42' W 074°09'0 0.0
2020-Mar-25 20:30N 40°42' W 074°09'0 0.0
2020-Mar-25 15:30N 40°42' W 074°09'0 0.0
2020-Mar-25 13:30N 40°42' W 074°09'0 0.0
2020-Mar-25 13:00N 40°42' W 074°09'0 0.0
2020-Mar-25 10:30N 40°42' W 074°09'0 0.0
2020-Mar-25 08:27N 40°42' W 074°09'0 0.0
2020-Mar-25 08:00N 40°42' W 074°09'0 0.0
2020-Mar-25 05:30N 40°42' W 074°09'0 0.0
2020-Mar-25 01:30N 40°42' W 074°09'0 0.0
2020-Mar-25 01:00N 40°42' W 074°09'0 0.0
2020-Mar-25 00:30N 40°42' W 074°09'0 0.0
2020-Mar-24 23:00N 40°42' W 074°09'0 0.0
2020-Mar-24 21:30N 40°42' W 074°09'0 0.0
2020-Mar-24 20:00N 40°42' W 074°09'0 0.0
2020-Mar-24 19:30N 40°42' W 074°09'0 0.0
2020-Mar-24 19:00N 40°42' W 074°09'0 0.0
2020-Mar-24 17:30N 40°42' W 074°09'0 0.0
2020-Mar-24 17:00N 40°42' W 074°09'0 0.0
2020-Mar-24 15:30N 40°42' W 074°09'0 0.0
2020-Mar-24 14:00N 40°42' W 074°09'0 0.0
2020-Mar-24 13:30N 40°42' W 074°09'0 0.0
2020-Mar-24 13:00N 40°42' W 074°09'0 0.0
2020-Mar-24 10:00N 40°42' W 074°09'0 0.0
2020-Mar-24 08:30N 40°42' W 074°09'0 0.0
2020-Mar-24 08:00N 40°42' W 074°09'0 0.0
2020-Mar-24 07:27N 40°42' W 074°09'0 0.0
2020-Mar-24 05:27N 40°42' W 074°09'0 0.0
2020-Mar-24 04:30N 40°42' W 074°09'0 0.0
2020-Mar-24 01:30N 40°42' W 074°09'0 0.0
2020-Mar-24 00:30N 40°42' W 074°09'0 0.0
2020-Mar-23 23:27N 40°42' W 074°09'0 0.0
2020-Mar-23 21:00N 40°42' W 074°09'3 2.0
2020-Mar-23 19:31N 40°39' W 074°09'2 0.3
2020-Mar-23 13:28N 40°38' W 074°12'0 0.0
2020-Mar-23 12:58N 40°38' W 074°12'0 0.0
2020-Mar-23 11:28N 40°38' W 074°12'0 0.0
2020-Mar-23 10:58N 40°38' W 074°12'0 0.0
2020-Mar-23 09:29N 40°38' W 074°12'0 0.0
2020-Mar-23 07:58N 40°38' W 074°12'0 0.0
2020-Mar-23 05:22N 40°38' W 074°12'0 0.0
2020-Mar-23 04:28N 40°38' W 074°12'0 0.0
2020-Mar-23 02:28N 40°38' W 074°12'0 0.0
2020-Mar-23 01:58N 40°38' W 074°12'0 0.0
2020-Mar-23 01:28N 40°38' W 074°12'0 0.0
2020-Mar-22 23:58N 40°38' W 074°12'0 0.0
2020-Mar-22 22:28N 40°38' W 074°12'0 0.0
2020-Mar-22 21:58N 40°38' W 074°12'0 0.0
2020-Mar-22 19:58N 40°38' W 074°12'0 0.0
2020-Mar-22 19:28N 40°38' W 074°12'0 0.0
2020-Mar-22 18:28N 40°38' W 074°12'0 0.0
2020-Mar-22 17:25N 40°38' W 074°12'0 0.0
2020-Mar-22 15:58N 40°38' W 074°12'0 0.0
2020-Mar-22 08:28N 40°38' W 074°12'0 0.0
2020-Mar-22 05:58N 40°38' W 074°12'0 0.0
2020-Mar-22 04:52N 40°38' W 074°12'0 0.0
2020-Mar-22 03:28N 40°38' W 074°12'0 0.0
2020-Mar-22 02:28N 40°38' W 074°12'0 0.0
2020-Mar-21 23:28N 40°38' W 074°12'0 0.0
2020-Mar-21 22:25N 40°38' W 074°12'0 0.0
2020-Mar-21 20:28N 40°38' W 074°12'0 0.0
2020-Mar-21 19:28N 40°38' W 074°12'0 0.0
2020-Mar-21 17:58N 40°38' W 074°12'0 0.0
2020-Mar-21 17:28N 40°38' W 074°12'0 0.0
2020-Mar-21 16:28N 40°38' W 074°12'0 0.0
2020-Mar-21 13:28N 40°38' W 074°12'0 0.0
2020-Mar-21 11:29N 40°38' W 074°12'0 0.0
2020-Mar-21 09:29N 40°38' W 074°12'0 0.0
2020-Mar-21 02:59N 40°38' W 074°12'0 0.0
2020-Mar-21 02:23N 40°38' W 074°12'0 0.0
2020-Mar-21 01:59N 40°38' W 074°12'0 0.0
2020-Mar-21 01:29N 40°38' W 074°12'0 0.0
2020-Mar-21 00:59N 40°38' W 074°12'0 0.0
2020-Mar-20 23:59N 40°38' W 074°12'0 0.0
2020-Mar-20 22:59N 40°38' W 074°12'0 0.0
2020-Mar-20 21:23N 40°38' W 074°12'0 0.0
2020-Mar-20 20:59N 40°38' W 074°12'0 0.0
2020-Mar-20 20:29N 40°38' W 074°12'0 0.0
2020-Mar-20 19:29N 40°38' W 074°12'0 0.0
2020-Mar-20 18:47N 40°38' W 074°12'0 0.0
2020-Mar-20 16:59N 40°38' W 074°12'0 0.0
2020-Mar-20 15:59N 40°38' W 074°12'0 0.0
2020-Mar-20 14:29N 40°38' W 074°12'0 0.0
2020-Mar-20 13:59N 40°38' W 074°12'0 0.0
2020-Mar-20 12:56N 40°38' W 074°12'0 0.0
2020-Mar-20 10:59N 40°38' W 074°12'0 0.0
2020-Mar-20 08:56N 40°38' W 074°12'0 0.0
2020-Mar-20 08:29N 40°38' W 074°12'0 0.0
2020-Mar-20 05:53N 40°38' W 074°12'0 0.0
2020-Mar-20 05:29N 40°38' W 074°12'0 0.0
2020-Mar-20 02:59N 40°38' W 074°12'0 0.0
2020-Mar-20 02:29N 40°38' W 074°12'0 0.0
2020-Mar-19 23:59N 40°38' W 074°12'0 0.0
2020-Mar-19 22:59N 40°38' W 074°12'0 0.0
2020-Mar-19 22:29N 40°38' W 074°12'0 0.0
2020-Mar-19 19:56N 40°38' W 074°12'0 0.0
2020-Mar-19 19:29N 40°38' W 074°12'0 0.0
2020-Mar-19 18:29N 40°38' W 074°12'0 0.0
2020-Mar-19 16:29N 40°38' W 074°12'0 0.0
2020-Mar-19 14:29N 40°38' W 074°12'0 0.0
2020-Mar-19 13:59N 40°38' W 074°12'0 0.0
2020-Mar-19 13:23N 40°38' W 074°12'0 0.0
2020-Mar-19 09:59N 40°38' W 074°12'0 0.0
2020-Mar-19 09:23N 40°38' W 074°12'0 0.0
2020-Mar-19 08:23N 40°38' W 074°12'0 0.0
2020-Mar-19 06:29N 40°38' W 074°12'0 0.0
2020-Mar-19 05:29N 40°38' W 074°12'0 0.0
2020-Mar-19 04:59N 40°38' W 074°12'0 0.0
2020-Mar-19 04:29N 40°38' W 074°12'0 0.0
2020-Mar-19 03:29N 40°38' W 074°12'0 0.0
2020-Mar-19 02:29N 40°38' W 074°12'0 0.0
2020-Mar-19 00:59N 40°38' W 074°12'0 0.0
2020-Mar-18 23:59N 40°38' W 074°12'0 0.0
2020-Mar-18 19:59N 40°38' W 074°12'0 0.0
2020-Mar-18 18:29N 40°38' W 074°12'0 0.0
2020-Mar-18 13:29N 40°38' W 074°12'0 0.0
2020-Mar-18 12:29N 40°38' W 074°12'0 0.0
2020-Mar-18 11:59N 40°38' W 074°12'7 3.4
2020-Mar-18 10:00N 40°37' W 074°03'4 8.4
2020-Mar-18 09:30N 40°33' W 074°02'4 7.7
2020-Mar-18 09:00N 40°30' W 073°58'4 8.2
2020-Mar-18 08:30N 40°29' W 073°53'  

Dump ship's entire track history